sensor_id;sensor_type;location;lat;lon;timestamp;temperature;humidity
4433;DHT22;2229;48.708;9.706;2022-10-22T00:01:57;14.90;99.90
4433;DHT22;2229;48.708;9.706;2022-10-22T00:04:24;14.80;99.90
4433;DHT22;2229;48.708;9.706;2022-10-22T00:06:51;14.80;99.90
4433;DHT22;2229;48.708;9.706;2022-10-22T00:09:18;14.90;99.90
4433;DHT22;2229;48.708;9.706;2022-10-22T00:11:45;14.80;99.90
4433;DHT22;2229;48.708;9.706;2022-10-22T00:14:14;14.80;99.90
4433;DHT22;2229;48.708;9.706;2022-10-22T00:16:41;14.70;99.90
4433;DHT22;2229;48.708;9.706;2022-10-22T00:19:28;14.70;99.90
4433;DHT22;2229;48.708;9.706;2022-10-22T00:21:56;14.70;99.90
4433;DHT22;2229;48.708;9.706;2022-10-22T00:24:23;14.60;99.90
4433;DHT22;2229;48.708;9.706;2022-10-22T00:26:50;14.60;99.90
4433;DHT22;2229;48.708;9.706;2022-10-22T00:29:18;14.60;99.90
4433;DHT22;2229;48.708;9.706;2022-10-22T00:31:46;14.50;99.90
4433;DHT22;2229;48.708;9.706;2022-10-22T00:34:15;14.50;99.90
4433;DHT22;2229;48.708;9.706;2022-10-22T00:36:42;14.50;99.90
4433;DHT22;2229;48.708;9.706;2022-10-22T00:39:10;14.50;99.90
4433;DHT22;2229;48.708;9.706;2022-10-22T00:41:38;14.50;99.90
4433;DHT22;2229;48.708;9.706;2022-10-22T00:44:06;14.40;99.90
4433;DHT22;2229;48.708;9.706;2022-10-22T00:46:54;14.40;99.90
4433;DHT22;2229;48.708;9.706;2022-10-22T00:49:21;14.40;99.90
4433;DHT22;2229;48.708;9.706;2022-10-22T00:51:48;14.40;99.90
4433;DHT22;2229;48.708;9.706;2022-10-22T00:54:15;14.40;99.90
4433;DHT22;2229;48.708;9.706;2022-10-22T00:56:43;14.40;99.90
4433;DHT22;2229;48.708;9.706;2022-10-22T00:59:13;14.40;99.90
4433;DHT22;2229;48.708;9.706;2022-10-22T01:01:41;14.40;99.90
4433;DHT22;2229;48.708;9.706;2022-10-22T01:04:11;14.40;99.90
4433;DHT22;2229;48.708;9.706;2022-10-22T01:06:38;14.40;99.90
4433;DHT22;2229;48.708;9.706;2022-10-22T01:09:15;14.40;99.90
4433;DHT22;2229;48.708;9.706;2022-10-22T01:11:52;14.40;99.90
4433;DHT22;2229;48.708;9.706;2022-10-22T01:14:26;14.40;99.90
4433;DHT22;2229;48.708;9.706;2022-10-22T01:16:58;14.40;99.90
4433;DHT22;2229;48.708;9.706;2022-10-22T01:19:48;14.40;99.90
4433;DHT22;2229;48.708;9.706;2022-10-22T01:22:23;14.40;99.90
4433;DHT22;2229;48.708;9.706;2022-10-22T01:25:00;14.30;99.90
4433;DHT22;2229;48.708;9.706;2022-10-22T01:27:49;14.30;99.90
4433;DHT22;2229;48.708;9.706;2022-10-22T01:30:20;14.30;99.90
4433;DHT22;2229;48.708;9.706;2022-10-22T01:32:50;14.30;99.90
4433;DHT22;2229;48.708;9.706;2022-10-22T01:35:21;14.20;99.90
4433;DHT22;2229;48.708;9.706;2022-10-22T01:37:52;14.20;99.90
4433;DHT22;2229;48.708;9.706;2022-10-22T01:40:21;14.20;99.90
4433;DHT22;2229;48.708;9.706;2022-10-22T01:42:56;14.20;99.90
4433;DHT22;2229;48.708;9.706;2022-10-22T01:45:26;14.20;99.90
4433;DHT22;2229;48.708;9.706;2022-10-22T01:48:02;14.20;99.90
4433;DHT22;2229;48.708;9.706;2022-10-22T01:50:54;14.20;99.90
4433;DHT22;2229;48.708;9.706;2022-10-22T01:53:31;14.10;99.90
4433;DHT22;2229;48.708;9.706;2022-10-22T01:56:16;14.20;99.90
4433;DHT22;2229;48.708;9.706;2022-10-22T01:58:52;14.20;99.90
4433;DHT22;2229;48.708;9.706;2022-10-22T02:01:28;14.20;99.90
4433;DHT22;2229;48.708;9.706;2022-10-22T02:04:01;14.20;99.90
4433;DHT22;2229;48.708;9.706;2022-10-22T02:06:30;14.20;99.90
4433;DHT22;2229;48.708;9.706;2022-10-22T02:09:00;14.20;99.90
4433;DHT22;2229;48.708;9.706;2022-10-22T02:11:28;14.10;99.90
4433;DHT22;2229;48.708;9.706;2022-10-22T02:13:58;14.10;99.90
4433;DHT22;2229;48.708;9.706;2022-10-22T02:16:32;14.10;99.90
4433;DHT22;2229;48.708;9.706;2022-10-22T02:19:03;14.10;99.90
4433;DHT22;2229;48.708;9.706;2022-10-22T02:21:31;14.10;99.90
4433;DHT22;2229;48.708;9.706;2022-10-22T02:23:58;14.00;99.90
4433;DHT22;2229;48.708;9.706;2022-10-22T02:26:31;14.10;99.90
4433;DHT22;2229;48.708;9.706;2022-10-22T02:29:05;14.10;99.90
4433;DHT22;2229;48.708;9.706;2022-10-22T02:31:40;14.00;99.90
4433;DHT22;2229;48.708;9.706;2022-10-22T02:34:12;14.00;99.90
4433;DHT22;2229;48.708;9.706;2022-10-22T02:36:41;14.00;99.90
4433;DHT22;2229;48.708;9.706;2022-10-22T02:39:10;14.00;99.90
4433;DHT22;2229;48.708;9.706;2022-10-22T02:41:38;14.00;99.90
4433;DHT22;2229;48.708;9.706;2022-10-22T02:44:08;13.90;99.90
4433;DHT22;2229;48.708;9.706;2022-10-22T02:46:36;13.90;99.90
4433;DHT22;2229;48.708;9.706;2022-10-22T02:49:04;13.90;99.90
4433;DHT22;2229;48.708;9.706;2022-10-22T02:51:32;13.90;99.90
4433;DHT22;2229;48.708;9.706;2022-10-22T02:53:59;13.90;99.90
4433;DHT22;2229;48.708;9.706;2022-10-22T02:56:26;13.80;99.90
4433;DHT22;2229;48.708;9.706;2022-10-22T02:58:53;13.80;99.90
4433;DHT22;2229;48.708;9.706;2022-10-22T03:01:20;13.80;99.90
4433;DHT22;2229;48.708;9.706;2022-10-22T03:03:47;13.80;99.90
4433;DHT22;2229;48.708;9.706;2022-10-22T03:06:16;13.70;99.90
4433;DHT22;2229;48.708;9.706;2022-10-22T03:08:43;13.70;99.90
4433;DHT22;2229;48.708;9.706;2022-10-22T03:11:10;13.70;99.90
4433;DHT22;2229;48.708;9.706;2022-10-22T03:13:37;13.70;99.90
4433;DHT22;2229;48.708;9.706;2022-10-22T03:16:05;13.70;99.90
4433;DHT22;2229;48.708;9.706;2022-10-22T03:18:32;13.70;99.90
4433;DHT22;2229;48.708;9.706;2022-10-22T03:21:05;13.70;99.90
4433;DHT22;2229;48.708;9.706;2022-10-22T03:23:35;13.70;99.90
4433;DHT22;2229;48.708;9.706;2022-10-22T03:26:03;13.70;99.90
4433;DHT22;2229;48.708;9.706;2022-10-22T03:28:32;13.70;99.90
4433;DHT22;2229;48.708;9.706;2022-10-22T03:31:00;13.70;99.90
4433;DHT22;2229;48.708;9.706;2022-10-22T03:33:28;13.70;99.90
4433;DHT22;2229;48.708;9.706;2022-10-22T03:35:55;13.70;99.90
4433;DHT22;2229;48.708;9.706;2022-10-22T03:38:22;13.70;99.90
4433;DHT22;2229;48.708;9.706;2022-10-22T03:41:09;13.70;99.90
4433;DHT22;2229;48.708;9.706;2022-10-22T03:43:37;13.60;99.90
4433;DHT22;2229;48.708;9.706;2022-10-22T03:46:05;13.60;99.90
4433;DHT22;2229;48.708;9.706;2022-10-22T03:48:33;13.50;99.90
4433;DHT22;2229;48.708;9.706;2022-10-22T03:51:00;13.50;99.90
4433;DHT22;2229;48.708;9.706;2022-10-22T03:53:27;13.40;99.90
4433;DHT22;2229;48.708;9.706;2022-10-22T03:55:54;13.40;99.90
4433;DHT22;2229;48.708;9.706;2022-10-22T03:58:22;13.40;99.90
4433;DHT22;2229;48.708;9.706;2022-10-22T04:00:49;13.30;99.90
4433;DHT22;2229;48.708;9.706;2022-10-22T04:03:16;13.30;99.90
4433;DHT22;2229;48.708;9.706;2022-10-22T04:05:43;13.30;99.90
4433;DHT22;2229;48.708;9.706;2022-10-22T04:08:10;13.20;99.90
4433;DHT22;2229;48.708;9.706;2022-10-22T04:10:37;13.20;99.90
4433;DHT22;2229;48.708;9.706;2022-10-22T04:13:04;13.20;99.90
4433;DHT22;2229;48.708;9.706;2022-10-22T04:15:33;13.30;99.90
4433;DHT22;2229;48.708;9.706;2022-10-22T04:18:00;13.20;99.90
4433;DHT22;2229;48.708;9.706;2022-10-22T04:20:27;13.20;99.90
4433;DHT22;2229;48.708;9.706;2022-10-22T04:22:54;13.20;99.90
4433;DHT22;2229;48.708;9.706;2022-10-22T04:25:21;13.20;99.90
4433;DHT22;2229;48.708;9.706;2022-10-22T04:27:48;13.20;99.90
4433;DHT22;2229;48.708;9.706;2022-10-22T04:30:15;13.20;99.90
4433;DHT22;2229;48.708;9.706;2022-10-22T04:32:44;13.20;99.90
4433;DHT22;2229;48.708;9.706;2022-10-22T04:35:11;13.20;99.90
4433;DHT22;2229;48.708;9.706;2022-10-22T04:37:38;13.20;99.90
4433;DHT22;2229;48.708;9.706;2022-10-22T04:40:06;13.10;99.90
4433;DHT22;2229;48.708;9.706;2022-10-22T04:42:33;13.10;99.90
4433;DHT22;2229;48.708;9.706;2022-10-22T04:45:00;13.10;99.90
4433;DHT22;2229;48.708;9.706;2022-10-22T04:47:58;13.10;99.90
4433;DHT22;2229;48.708;9.706;2022-10-22T04:50:25;13.10;99.90
4433;DHT22;2229;48.708;9.706;2022-10-22T04:52:53;13.10;99.90
4433;DHT22;2229;48.708;9.706;2022-10-22T04:55:20;13.10;99.90
4433;DHT22;2229;48.708;9.706;2022-10-22T04:57:47;13.10;99.90
4433;DHT22;2229;48.708;9.706;2022-10-22T05:00:14;13.10;99.90
4433;DHT22;2229;48.708;9.706;2022-10-22T05:02:42;13.10;99.90
4433;DHT22;2229;48.708;9.706;2022-10-22T05:05:11;13.10;99.90
4433;DHT22;2229;48.708;9.706;2022-10-22T05:07:38;13.00;99.90
4433;DHT22;2229;48.708;9.706;2022-10-22T05:10:06;13.10;99.90
4433;DHT22;2229;48.708;9.706;2022-10-22T05:12:34;13.00;99.90
4433;DHT22;2229;48.708;9.706;2022-10-22T05:15:01;13.00;99.90
4433;DHT22;2229;48.708;9.706;2022-10-22T05:17:28;13.00;99.90
4433;DHT22;2229;48.708;9.706;2022-10-22T05:19:58;13.00;99.90
4433;DHT22;2229;48.708;9.706;2022-10-22T05:22:26;13.00;99.90
4433;DHT22;2229;48.708;9.706;2022-10-22T05:24:53;13.00;99.90
4433;DHT22;2229;48.708;9.706;2022-10-22T05:27:31;12.90;99.90
4433;DHT22;2229;48.708;9.706;2022-10-22T05:29:58;12.90;99.90
4433;DHT22;2229;48.708;9.706;2022-10-22T05:32:25;12.90;99.90
4433;DHT22;2229;48.708;9.706;2022-10-22T05:34:52;12.80;99.90
4433;DHT22;2229;48.708;9.706;2022-10-22T05:37:19;12.90;99.90
4433;DHT22;2229;48.708;9.706;2022-10-22T05:39:47;12.80;99.90
4433;DHT22;2229;48.708;9.706;2022-10-22T05:42:14;12.80;99.90
4433;DHT22;2229;48.708;9.706;2022-10-22T05:44:41;12.80;99.90
4433;DHT22;2229;48.708;9.706;2022-10-22T05:47:08;12.80;99.90
4433;DHT22;2229;48.708;9.706;2022-10-22T05:49:36;12.80;99.90
4433;DHT22;2229;48.708;9.706;2022-10-22T05:52:06;12.80;99.90
4433;DHT22;2229;48.708;9.706;2022-10-22T05:54:33;12.80;99.90
4433;DHT22;2229;48.708;9.706;2022-10-22T05:57:01;12.90;99.90
4433;DHT22;2229;48.708;9.706;2022-10-22T05:59:29;12.90;99.90
4433;DHT22;2229;48.708;9.706;2022-10-22T06:01:56;12.90;99.90
4433;DHT22;2229;48.708;9.706;2022-10-22T06:04:23;12.90;99.90
4433;DHT22;2229;48.708;9.706;2022-10-22T06:06:51;13.00;99.90
4433;DHT22;2229;48.708;9.706;2022-10-22T06:09:21;13.00;99.90
4433;DHT22;2229;48.708;9.706;2022-10-22T06:11:49;13.00;99.90
4433;DHT22;2229;48.708;9.706;2022-10-22T06:14:19;13.00;99.90
4433;DHT22;2229;48.708;9.706;2022-10-22T06:16:47;13.10;99.90
4433;DHT22;2229;48.708;9.706;2022-10-22T06:19:16;13.10;99.90
4433;DHT22;2229;48.708;9.706;2022-10-22T06:21:44;13.10;99.90
4433;DHT22;2229;48.708;9.706;2022-10-22T06:24:11;13.10;99.90
4433;DHT22;2229;48.708;9.706;2022-10-22T06:26:39;13.10;99.90
4433;DHT22;2229;48.708;9.706;2022-10-22T06:29:07;13.10;99.90
4433;DHT22;2229;48.708;9.706;2022-10-22T06:31:36;13.10;99.90
4433;DHT22;2229;48.708;9.706;2022-10-22T06:34:07;13.20;99.90
4433;DHT22;2229;48.708;9.706;2022-10-22T06:36:35;13.10;99.90
4433;DHT22;2229;48.708;9.706;2022-10-22T06:39:04;13.20;99.90
4433;DHT22;2229;48.708;9.706;2022-10-22T06:41:31;13.20;99.90
4433;DHT22;2229;48.708;9.706;2022-10-22T06:43:58;13.20;99.90
4433;DHT22;2229;48.708;9.706;2022-10-22T06:46:25;13.20;99.90
4433;DHT22;2229;48.708;9.706;2022-10-22T06:48:55;13.30;99.90
4433;DHT22;2229;48.708;9.706;2022-10-22T06:51:23;13.30;99.90
4433;DHT22;2229;48.708;9.706;2022-10-22T06:53:51;13.30;99.90
4433;DHT22;2229;48.708;9.706;2022-10-22T06:56:20;13.30;99.90
4433;DHT22;2229;48.708;9.706;2022-10-22T06:58:47;13.30;99.90
4433;DHT22;2229;48.708;9.706;2022-10-22T07:01:16;13.40;99.90
4433;DHT22;2229;48.708;9.706;2022-10-22T07:03:44;13.40;99.90
4433;DHT22;2229;48.708;9.706;2022-10-22T07:06:14;13.50;99.90
4433;DHT22;2229;48.708;9.706;2022-10-22T07:08:41;13.50;99.90
4433;DHT22;2229;48.708;9.706;2022-10-22T07:11:11;13.50;99.90
4433;DHT22;2229;48.708;9.706;2022-10-22T07:13:39;13.60;99.90
4433;DHT22;2229;48.708;9.706;2022-10-22T07:16:07;13.70;99.90
4433;DHT22;2229;48.708;9.706;2022-10-22T07:18:35;13.70;99.90
4433;DHT22;2229;48.708;9.706;2022-10-22T07:21:03;13.90;99.90
4433;DHT22;2229;48.708;9.706;2022-10-22T07:23:33;13.90;99.90
4433;DHT22;2229;48.708;9.706;2022-10-22T07:26:00;14.10;99.90
4433;DHT22;2229;48.708;9.706;2022-10-22T07:28:28;14.10;99.90
4433;DHT22;2229;48.708;9.706;2022-10-22T07:30:57;14.10;99.90
4433;DHT22;2229;48.708;9.706;2022-10-22T07:33:24;14.20;99.90
4433;DHT22;2229;48.708;9.706;2022-10-22T07:35:57;14.20;99.90
4433;DHT22;2229;48.708;9.706;2022-10-22T07:38:24;14.20;99.90
4433;DHT22;2229;48.708;9.706;2022-10-22T07:40:53;14.30;99.90
4433;DHT22;2229;48.708;9.706;2022-10-22T07:43:20;14.30;99.90
4433;DHT22;2229;48.708;9.706;2022-10-22T07:45:47;14.40;99.90
4433;DHT22;2229;48.708;9.706;2022-10-22T07:48:14;14.40;99.90
4433;DHT22;2229;48.708;9.706;2022-10-22T07:50:41;14.50;99.90
4433;DHT22;2229;48.708;9.706;2022-10-22T07:53:08;14.60;99.90
4433;DHT22;2229;48.708;9.706;2022-10-22T07:55:36;14.70;99.90
4433;DHT22;2229;48.708;9.706;2022-10-22T07:58:04;14.90;99.90
4433;DHT22;2229;48.708;9.706;2022-10-22T08:00:32;15.30;99.90
4433;DHT22;2229;48.708;9.706;2022-10-22T08:02:59;16.10;99.90
4433;DHT22;2229;48.708;9.706;2022-10-22T08:05:26;16.90;99.90
4433;DHT22;2229;48.708;9.706;2022-10-22T08:07:53;17.70;99.90
4433;DHT22;2229;48.708;9.706;2022-10-22T08:10:20;18.40;99.90
4433;DHT22;2229;48.708;9.706;2022-10-22T08:12:47;19.20;99.90
4433;DHT22;2229;48.708;9.706;2022-10-22T08:15:16;20.10;99.90
4433;DHT22;2229;48.708;9.706;2022-10-22T08:17:43;21.30;99.90
4433;DHT22;2229;48.708;9.706;2022-10-22T08:20:10;22.50;99.90
4433;DHT22;2229;48.708;9.706;2022-10-22T08:22:38;23.70;99.90
4433;DHT22;2229;48.708;9.706;2022-10-22T08:25:05;24.70;99.80
4433;DHT22;2229;48.708;9.706;2022-10-22T08:27:32;25.90;99.20
4433;DHT22;2229;48.708;9.706;2022-10-22T08:30:00;27.00;95.60
4433;DHT22;2229;48.708;9.706;2022-10-22T08:32:28;27.80;92.80
4433;DHT22;2229;48.708;9.706;2022-10-22T08:34:55;28.60;90.20
4433;DHT22;2229;48.708;9.706;2022-10-22T08:37:22;29.30;87.10
4433;DHT22;2229;48.708;9.706;2022-10-22T08:39:50;29.60;81.20
4433;DHT22;2229;48.708;9.706;2022-10-22T08:42:43;29.40;78.70
4433;DHT22;2229;48.708;9.706;2022-10-22T08:45:19;28.70;78.70
4433;DHT22;2229;48.708;9.706;2022-10-22T08:48:02;28.30;78.60
4433;DHT22;2229;48.708;9.706;2022-10-22T08:50:35;28.00;76.50
4433;DHT22;2229;48.708;9.706;2022-10-22T08:53:06;28.10;76.50
4433;DHT22;2229;48.708;9.706;2022-10-22T08:55:35;28.70;77.00
4433;DHT22;2229;48.708;9.706;2022-10-22T08:58:13;29.40;73.90
4433;DHT22;2229;48.708;9.706;2022-10-22T09:00:48;30.30;68.80
4433;DHT22;2229;48.708;9.706;2022-10-22T09:03:29;31.00;69.30
4433;DHT22;2229;48.708;9.706;2022-10-22T09:06:04;31.60;65.00
4433;DHT22;2229;48.708;9.706;2022-10-22T09:08:35;32.10;63.60
4433;DHT22;2229;48.708;9.706;2022-10-22T09:11:08;32.30;61.10
4433;DHT22;2229;48.708;9.706;2022-10-22T09:13:40;32.70;60.10
4433;DHT22;2229;48.708;9.706;2022-10-22T09:16:14;33.00;58.90
4433;DHT22;2229;48.708;9.706;2022-10-22T09:18:50;33.40;57.60
4433;DHT22;2229;48.708;9.706;2022-10-22T09:21:36;33.70;57.20
4433;DHT22;2229;48.708;9.706;2022-10-22T09:24:31;33.90;56.50
4433;DHT22;2229;48.708;9.706;2022-10-22T09:27:10;34.10;56.00
4433;DHT22;2229;48.708;9.706;2022-10-22T09:29:38;34.20;55.50
4433;DHT22;2229;48.708;9.706;2022-10-22T09:32:05;34.10;55.80
4433;DHT22;2229;48.708;9.706;2022-10-22T09:34:34;34.20;54.70
4433;DHT22;2229;48.708;9.706;2022-10-22T09:37:03;34.10;54.70
4433;DHT22;2229;48.708;9.706;2022-10-22T09:39:32;34.10;54.50
4433;DHT22;2229;48.708;9.706;2022-10-22T09:42:00;34.10;54.60
4433;DHT22;2229;48.708;9.706;2022-10-22T09:44:27;34.00;54.40
4433;DHT22;2229;48.708;9.706;2022-10-22T09:46:54;34.00;54.70
4433;DHT22;2229;48.708;9.706;2022-10-22T09:49:22;34.00;54.20
4433;DHT22;2229;48.708;9.706;2022-10-22T09:51:53;34.00;54.40
4433;DHT22;2229;48.708;9.706;2022-10-22T09:54:22;34.10;54.50
4433;DHT22;2229;48.708;9.706;2022-10-22T09:56:53;34.20;54.10
4433;DHT22;2229;48.708;9.706;2022-10-22T09:59:27;34.10;53.90
4433;DHT22;2229;48.708;9.706;2022-10-22T10:02:00;34.00;53.80
4433;DHT22;2229;48.708;9.706;2022-10-22T10:04:33;33.90;53.50
4433;DHT22;2229;48.708;9.706;2022-10-22T10:07:17;33.80;53.90
4433;DHT22;2229;48.708;9.706;2022-10-22T10:09:45;33.50;54.60
4433;DHT22;2229;48.708;9.706;2022-10-22T10:12:22;33.30;54.10
4433;DHT22;2229;48.708;9.706;2022-10-22T10:14:56;33.30;54.50
4433;DHT22;2229;48.708;9.706;2022-10-22T10:17:35;33.00;55.10
4433;DHT22;2229;48.708;9.706;2022-10-22T10:20:15;32.80;54.90
4433;DHT22;2229;48.708;9.706;2022-10-22T10:22:57;32.50;55.50
4433;DHT22;2229;48.708;9.706;2022-10-22T10:25:40;32.10;56.10
4433;DHT22;2229;48.708;9.706;2022-10-22T10:28:35;31.80;56.40
4433;DHT22;2229;48.708;9.706;2022-10-22T10:31:14;31.30;56.90
4433;DHT22;2229;48.708;9.706;2022-10-22T10:33:49;30.70;58.30
4433;DHT22;2229;48.708;9.706;2022-10-22T10:36:22;30.30;58.30
4433;DHT22;2229;48.708;9.706;2022-10-22T10:39:00;29.90;58.70
4433;DHT22;2229;48.708;9.706;2022-10-22T10:41:38;29.40;59.90
4433;DHT22;2229;48.708;9.706;2022-10-22T10:47:20;28.30;61.40
4433;DHT22;2229;48.708;9.706;2022-10-22T10:49:53;27.60;63.50
4433;DHT22;2229;48.708;9.706;2022-10-22T10:52:30;27.00;64.80
4433;DHT22;2229;48.708;9.706;2022-10-22T10:55:14;26.50;65.70
4433;DHT22;2229;48.708;9.706;2022-10-22T10:57:51;26.10;67.90
4433;DHT22;2229;48.708;9.706;2022-10-22T11:00:25;25.70;68.20
4433;DHT22;2229;48.708;9.706;2022-10-22T11:06:11;25.30;70.30
4433;DHT22;2229;48.708;9.706;2022-10-22T11:08:42;25.30;70.10
4433;DHT22;2229;48.708;9.706;2022-10-22T11:11:17;25.10;70.90
4433;DHT22;2229;48.708;9.706;2022-10-22T11:13:50;24.90;70.90
4433;DHT22;2229;48.708;9.706;2022-10-22T11:16:20;24.60;71.80
4433;DHT22;2229;48.708;9.706;2022-10-22T11:18:54;24.30;71.80
4433;DHT22;2229;48.708;9.706;2022-10-22T11:21:27;24.00;72.40
4433;DHT22;2229;48.708;9.706;2022-10-22T11:24:03;23.60;73.40
4433;DHT22;2229;48.708;9.706;2022-10-22T11:26:42;23.30;74.30
4433;DHT22;2229;48.708;9.706;2022-10-22T11:29:13;23.10;75.10
4433;DHT22;2229;48.708;9.706;2022-10-22T11:31:42;23.10;76.50
4433;DHT22;2229;48.708;9.706;2022-10-22T11:34:16;23.00;76.90
4433;DHT22;2229;48.708;9.706;2022-10-22T11:36:45;22.90;76.70
4433;DHT22;2229;48.708;9.706;2022-10-22T11:39:29;22.80;76.40
4433;DHT22;2229;48.708;9.706;2022-10-22T11:42:02;22.70;76.90
4433;DHT22;2229;48.708;9.706;2022-10-22T11:44:29;22.60;77.60
4433;DHT22;2229;48.708;9.706;2022-10-22T11:47:08;22.50;78.40
4433;DHT22;2229;48.708;9.706;2022-10-22T11:49:42;22.30;78.30
4433;DHT22;2229;48.708;9.706;2022-10-22T11:52:25;22.10;78.20
4433;DHT22;2229;48.708;9.706;2022-10-22T11:54:54;22.00;79.30
4433;DHT22;2229;48.708;9.706;2022-10-22T11:57:28;21.90;79.70
4433;DHT22;2229;48.708;9.706;2022-10-22T12:00:08;22.00;80.10
4433;DHT22;2229;48.708;9.706;2022-10-22T12:02:40;22.00;80.70
4433;DHT22;2229;48.708;9.706;2022-10-22T12:05:35;22.10;81.70
4433;DHT22;2229;48.708;9.706;2022-10-22T12:08:15;22.20;81.80
4433;DHT22;2229;48.708;9.706;2022-10-22T12:11:14;22.20;80.80
4433;DHT22;2229;48.708;9.706;2022-10-22T12:14:18;22.10;80.30
4433;DHT22;2229;48.708;9.706;2022-10-22T12:16:47;21.80;80.10
4433;DHT22;2229;48.708;9.706;2022-10-22T12:19:24;21.80;80.80
4433;DHT22;2229;48.708;9.706;2022-10-22T12:21:53;21.70;79.80
4433;DHT22;2229;48.708;9.706;2022-10-22T12:24:22;21.70;80.40
4433;DHT22;2229;48.708;9.706;2022-10-22T12:26:50;21.70;79.90
4433;DHT22;2229;48.708;9.706;2022-10-22T12:29:20;21.70;80.30
4433;DHT22;2229;48.708;9.706;2022-10-22T12:31:48;21.70;80.70
4433;DHT22;2229;48.708;9.706;2022-10-22T12:34:17;21.70;80.60
4433;DHT22;2229;48.708;9.706;2022-10-22T12:36:48;21.70;80.10
4433;DHT22;2229;48.708;9.706;2022-10-22T12:39:17;21.70;79.60
4433;DHT22;2229;48.708;9.706;2022-10-22T12:41:45;21.70;78.90
4433;DHT22;2229;48.708;9.706;2022-10-22T12:44:15;21.80;78.50
4433;DHT22;2229;48.708;9.706;2022-10-22T12:46:45;21.80;78.40
4433;DHT22;2229;48.708;9.706;2022-10-22T12:49:16;21.80;78.40
4433;DHT22;2229;48.708;9.706;2022-10-22T12:51:46;21.80;77.90
4433;DHT22;2229;48.708;9.706;2022-10-22T12:54:32;21.80;78.70
4433;DHT22;2229;48.708;9.706;2022-10-22T12:57:00;21.80;78.80
4433;DHT22;2229;48.708;9.706;2022-10-22T12:59:29;21.80;78.70
4433;DHT22;2229;48.708;9.706;2022-10-22T13:02:00;21.90;77.50
4433;DHT22;2229;48.708;9.706;2022-10-22T13:04:33;21.90;76.80
4433;DHT22;2229;48.708;9.706;2022-10-22T13:07:16;21.90;76.90
4433;DHT22;2229;48.708;9.706;2022-10-22T13:09:46;21.90;75.50
4433;DHT22;2229;48.708;9.706;2022-10-22T13:12:13;22.00;75.40
4433;DHT22;2229;48.708;9.706;2022-10-22T13:14:44;22.10;75.50
4433;DHT22;2229;48.708;9.706;2022-10-22T13:17:15;22.10;75.10
4433;DHT22;2229;48.708;9.706;2022-10-22T13:19:48;22.20;76.10
4433;DHT22;2229;48.708;9.706;2022-10-22T13:22:28;22.30;76.70
4433;DHT22;2229;48.708;9.706;2022-10-22T13:24:56;22.40;76.70
4433;DHT22;2229;48.708;9.706;2022-10-22T13:27:25;22.40;76.90
4433;DHT22;2229;48.708;9.706;2022-10-22T13:29:53;22.50;77.10
4433;DHT22;2229;48.708;9.706;2022-10-22T13:32:28;22.60;77.50
4433;DHT22;2229;48.708;9.706;2022-10-22T13:34:57;22.60;77.10
4433;DHT22;2229;48.708;9.706;2022-10-22T13:37:25;22.60;76.70
4433;DHT22;2229;48.708;9.706;2022-10-22T13:39:52;22.60;74.10
4433;DHT22;2229;48.708;9.706;2022-10-22T13:42:19;22.50;73.30
4433;DHT22;2229;48.708;9.706;2022-10-22T13:44:47;22.50;73.30
4433;DHT22;2229;48.708;9.706;2022-10-22T13:47:23;22.50;73.00
4433;DHT22;2229;48.708;9.706;2022-10-22T13:49:54;22.60;73.90
4433;DHT22;2229;48.708;9.706;2022-10-22T13:52:28;22.60;74.90
4433;DHT22;2229;48.708;9.706;2022-10-22T13:54:56;22.50;75.50
4433;DHT22;2229;48.708;9.706;2022-10-22T13:57:23;22.50;76.00
4433;DHT22;2229;48.708;9.706;2022-10-22T13:59:50;22.50;76.10
4433;DHT22;2229;48.708;9.706;2022-10-22T14:02:18;22.40;76.20
4433;DHT22;2229;48.708;9.706;2022-10-22T14:04:49;22.30;76.50
4433;DHT22;2229;48.708;9.706;2022-10-22T14:07:18;22.30;76.80
4433;DHT22;2229;48.708;9.706;2022-10-22T14:09:46;22.20;76.60
4433;DHT22;2229;48.708;9.706;2022-10-22T14:12:16;22.20;76.80
4433;DHT22;2229;48.708;9.706;2022-10-22T14:14:43;22.20;76.70
4433;DHT22;2229;48.708;9.706;2022-10-22T14:17:12;22.20;77.20
4433;DHT22;2229;48.708;9.706;2022-10-22T14:19:43;22.20;76.70
4433;DHT22;2229;48.708;9.706;2022-10-22T14:22:14;22.20;76.50
4433;DHT22;2229;48.708;9.706;2022-10-22T14:24:44;22.20;75.90
4433;DHT22;2229;48.708;9.706;2022-10-22T14:27:12;22.20;75.60
4433;DHT22;2229;48.708;9.706;2022-10-22T14:29:40;22.20;73.90
4433;DHT22;2229;48.708;9.706;2022-10-22T14:32:12;22.20;73.80
4433;DHT22;2229;48.708;9.706;2022-10-22T14:34:40;22.30;74.70
4433;DHT22;2229;48.708;9.706;2022-10-22T14:37:14;22.20;74.50
4433;DHT22;2229;48.708;9.706;2022-10-22T14:39:44;22.20;74.50
4433;DHT22;2229;48.708;9.706;2022-10-22T14:42:17;22.20;73.80
4433;DHT22;2229;48.708;9.706;2022-10-22T14:44:44;22.20;72.70
4433;DHT22;2229;48.708;9.706;2022-10-22T14:47:11;22.20;72.90
4433;DHT22;2229;48.708;9.706;2022-10-22T14:49:38;22.10;73.00
4433;DHT22;2229;48.708;9.706;2022-10-22T14:52:06;22.10;73.60
4433;DHT22;2229;48.708;9.706;2022-10-22T14:54:33;22.10;73.00
4433;DHT22;2229;48.708;9.706;2022-10-22T14:57:02;22.00;73.50
4433;DHT22;2229;48.708;9.706;2022-10-22T14:59:29;22.00;74.50
4433;DHT22;2229;48.708;9.706;2022-10-22T15:01:56;22.00;74.80
4433;DHT22;2229;48.708;9.706;2022-10-22T15:04:24;21.90;74.60
4433;DHT22;2229;48.708;9.706;2022-10-22T15:06:52;21.80;74.90
4433;DHT22;2229;48.708;9.706;2022-10-22T15:09:22;21.80;75.40
4433;DHT22;2229;48.708;9.706;2022-10-22T15:11:49;21.70;75.30
4433;DHT22;2229;48.708;9.706;2022-10-22T15:14:18;21.60;75.30
4433;DHT22;2229;48.708;9.706;2022-10-22T15:16:45;21.50;75.70
4433;DHT22;2229;48.708;9.706;2022-10-22T15:19:12;21.40;76.10
4433;DHT22;2229;48.708;9.706;2022-10-22T15:21:42;21.40;75.40
4433;DHT22;2229;48.708;9.706;2022-10-22T15:24:09;21.30;75.90
4433;DHT22;2229;48.708;9.706;2022-10-22T15:26:37;21.20;76.00
4433;DHT22;2229;48.708;9.706;2022-10-22T15:29:04;21.10;76.20
4433;DHT22;2229;48.708;9.706;2022-10-22T15:31:44;21.10;76.70
4433;DHT22;2229;48.708;9.706;2022-10-22T15:34:12;21.00;77.30
4433;DHT22;2229;48.708;9.706;2022-10-22T15:36:39;20.80;77.50
4433;DHT22;2229;48.708;9.706;2022-10-22T15:39:07;20.70;78.90
4433;DHT22;2229;48.708;9.706;2022-10-22T15:41:35;20.60;78.70
4433;DHT22;2229;48.708;9.706;2022-10-22T15:44:03;20.50;78.90
4433;DHT22;2229;48.708;9.706;2022-10-22T15:46:31;20.30;78.80
4433;DHT22;2229;48.708;9.706;2022-10-22T15:49:00;20.20;78.60
4433;DHT22;2229;48.708;9.706;2022-10-22T15:51:27;20.00;78.70
4433;DHT22;2229;48.708;9.706;2022-10-22T15:53:56;19.90;79.20
4433;DHT22;2229;48.708;9.706;2022-10-22T15:56:25;19.70;79.60
4433;DHT22;2229;48.708;9.706;2022-10-22T15:58:53;19.50;79.80
4433;DHT22;2229;48.708;9.706;2022-10-22T16:01:21;19.40;80.00
4433;DHT22;2229;48.708;9.706;2022-10-22T16:03:49;19.20;80.90
4433;DHT22;2229;48.708;9.706;2022-10-22T16:06:26;19.00;81.70
4433;DHT22;2229;48.708;9.706;2022-10-22T16:08:53;18.80;83.10
4433;DHT22;2229;48.708;9.706;2022-10-22T16:11:22;18.70;84.40
4433;DHT22;2229;48.708;9.706;2022-10-22T16:13:52;18.50;85.70
4433;DHT22;2229;48.708;9.706;2022-10-22T16:16:20;18.30;86.60
4433;DHT22;2229;48.708;9.706;2022-10-22T16:18:47;18.10;87.30
4433;DHT22;2229;48.708;9.706;2022-10-22T16:21:14;18.00;88.10
4433;DHT22;2229;48.708;9.706;2022-10-22T16:23:43;17.80;88.60
4433;DHT22;2229;48.708;9.706;2022-10-22T16:26:12;17.60;89.10
4433;DHT22;2229;48.708;9.706;2022-10-22T16:28:39;17.40;89.40
4433;DHT22;2229;48.708;9.706;2022-10-22T16:31:09;17.30;89.70